Adrian, Ohio
Current Conditions -  °F | °C
As of 7:57 AM on Tuesday 21 Oct 2014 (Local Time) from KFDY Reporting Station
Light Rain Light Rain  
Wind Chill:   Ceiling: 600
Heat Index:   Visibility: 9mi
Dew Point:   Wind: 9mph
Humidity: 89%   Direction: 310°NW
Pressure: 29.95"   Gusts: NA
Location:  41°N, 83.32°W
Report Text: KFDY 211157Z AUTO 31008KT 9SM -RA BKN006 BKN011 OVC025 09/07 A2995 RMK AO2 CIG 004V009 P0000 T00890072
Loading
Personal Weather Stations






























Interactive Weather Map New forecast layout! Learn more

10-Day Weather Forecast

Advertisements
Track Severe Weather on mobile